Terminal Aerodrome Forecast
Issued by NWS Louisville, KY

Home | Current Version | Previous Version | Text Only | Print | Product List | Glossary On
Versions: 1 2 3 4 5 6 7 8 9 10 11 12 13 14 15 16 17 18 19 20 21 22
879
FTUS43 KLMK 252321
TAFLEX
TAF
KLEX 252321Z 2600/2624 20012KT P6SM FEW060 FEW250
     FM260200 20008KT P6SM FEW250
     FM261400 24012KT P6SM VCSH BKN030
     FM261800 24010KT P6SM BKN040
     FM262200 24008KT P6SM -SHRA VCTS BKN040CB=

USA.gov is the U.S. government's official web portal to all federal, state and local government web resources and services.